Search for airport 
image banner adimage banner adimage banner ad
image banner ad

61L - Engine Co Nr 109

Located in Los Angeles/Van Nuys, United States

ICAO - 61L, IATA -

Data provided by Airmate  

General information

Coordinates: N34°7'51" W118°29'26"
Elevation is 1375 feet MSL.
Magnetic variation is 14° East
View others Airports in California

Operational data

Special qualification required
Current time UTC:
Current local time:
Weather at : KVNY - Van Nuys ( 9 km )
METAR: KVNY 141051Z AUTO 00000KT 10SM CLR 19/13 A2991 RMK AO2 SLP117 T01940128
TAF: KVNY 141128Z 1412/1512 VRB03KT P6SM SKC FM142000 15010KT P6SM SKC FM150000 28008KT P6SM SKC FM150300 VRB03KT P6SM SKC
View NOTAMs / SUP AIP / TFR affecting this airport [VIEW]
Communications frequencies: [VIEW]

Runways:

Airport contact information

Address: Los Angeles/Van Nuys United States

Satellite view of 61L